Time;durP1;ratioP1;P1;durP2;ratioP2;P2;SDS_P1;SDS_P2;PMS_P1;PMS_P2;Temp;Humidity;BMP_temperature;BMP_pressure;BME280_temperature;BME280_humidity;BME280_pressure;Samples;Min_cycle;Max_cycle;Signal;HPM_P1;HPM_P2
2022/03/10 00:01:25;;;;;;;2.70;2.60;;;4.80;99.90;;;;;;5086276;28;20250;-65
2022/03/10 00:06:31;;;;;;;3.00;2.80;;;4.80;99.90;;;;;;5033651;28;20313;-62
2022/03/10 00:08:58;;;;;;;2.80;2.70;;;4.70;99.90;;;;;;5041408;28;20841;-63
2022/03/10 00:11:25;;;;;;;2.88;2.67;;;4.70;99.90;;;;;;5035907;28;20204;-64
2022/03/10 00:13:51;;;;;;;2.67;2.57;;;4.80;99.90;;;;;;5037604;28;20240;-63
2022/03/10 00:16:18;;;;;;;2.75;2.65;;;4.80;99.90;;;;;;5018439;28;20315;-64
2022/03/10 00:18:45;;;;;;;3.08;2.90;;;4.80;99.90;;;;;;5028062;28;20279;-64
2022/03/10 00:21:12;;;;;;;2.75;2.60;;;4.70;99.90;;;;;;5035004;28;20282;-62
2022/03/10 00:23:40;;;;;;;3.20;3.00;;;4.60;99.90;;;;;;5034550;28;20236;-63
2022/03/10 00:26:07;;;;;;;3.00;2.90;;;4.50;99.90;;;;;;5021986;28;20225;-63
2022/03/10 00:28:34;;;;;;;2.90;2.78;;;4.50;99.90;;;;;;5006753;28;20254;-62
2022/03/10 00:31:01;;;;;;;2.85;2.65;;;4.40;99.90;;;;;;5009136;28;20283;-65
2022/03/10 00:33:28;;;;;;;3.08;2.80;;;4.40;99.90;;;;;;5003191;28;20206;-63
2022/03/10 00:35:55;;;;;;;3.25;3.05;;;4.40;99.90;;;;;;5003443;28;20253;-62
2022/03/10 00:38:22;;;;;;;2.83;2.72;;;4.30;99.90;;;;;;5006391;28;20245;-62
2022/03/10 00:40:50;;;;;;;2.95;2.75;;;4.30;99.90;;;;;;5006077;28;20739;-63
2022/03/10 00:43:17;;;;;;;3.00;2.80;;;4.30;99.90;;;;;;5022314;28;20264;-64
2022/03/10 00:45:44;;;;;;;2.87;2.77;;;4.20;99.90;;;;;;5017003;28;20320;-63
2022/03/10 00:48:11;;;;;;;3.28;3.08;;;4.20;99.90;;;;;;5016704;28;20291;-64
2022/03/10 00:50:38;;;;;;;2.72;2.63;;;4.20;99.90;;;;;;5010047;28;20232;-64
2022/03/10 00:53:05;;;;;;;2.70;2.60;;;4.20;99.90;;;;;;5015969;28;20736;-64
2022/03/10 00:55:32;;;;;;;3.22;3.03;;;4.20;99.90;;;;;;5016207;28;20782;-63
2022/03/10 00:58:00;;;;;;;3.28;3.08;;;4.10;99.90;;;;;;5017465;28;20233;-64
2022/03/10 01:00:28;;;;;;;3.50;3.30;;;4.10;99.90;;;;;;5016113;28;20205;-65
2022/03/10 01:02:55;;;;;;;3.30;3.10;;;4.00;99.90;;;;;;5015955;28;20279;-63
2022/03/10 01:05:22;;;;;;;3.33;3.13;;;4.00;99.90;;;;;;5015738;28;20243;-64
2022/03/10 01:07:50;;;;;;;2.90;2.80;;;4.10;99.90;;;;;;5015546;28;20384;-64
2022/03/10 01:10:18;;;;;;;3.00;2.80;;;4.00;99.90;;;;;;5015684;28;20229;-63
2022/03/10 01:12:46;;;;;;;3.13;2.92;;;4.00;99.90;;;;;;5015539;28;20209;-64
2022/03/10 01:15:15;;;;;;;3.30;3.00;;;3.90;99.90;;;;;;5014983;28;20244;-63
2022/03/10 01:17:42;;;;;;;2.83;2.72;;;3.90;99.90;;;;;;5023531;28;20201;-63
2022/03/10 01:20:10;;;;;;;3.10;2.90;;;3.90;99.90;;;;;;5030025;28;20200;-63
2022/03/10 01:22:37;;;;;;;3.00;2.90;;;3.90;99.90;;;;;;5033808;28;20288;-63
2022/03/10 01:25:04;;;;;;;3.35;3.05;;;3.90;99.90;;;;;;5034715;28;20228;-64
2022/03/10 01:27:31;;;;;;;3.53;3.20;;;3.90;99.90;;;;;;5036061;28;20234;-64
2022/03/10 01:29:58;;;;;;;3.45;3.25;;;3.90;99.90;;;;;;5036295;28;20310;-63
2022/03/10 01:32:26;;;;;;;3.30;3.10;;;3.90;99.90;;;;;;5035882;28;20402;-64
2022/03/10 01:34:53;;;;;;;3.20;3.00;;;3.90;99.90;;;;;;5035178;28;20307;-64
2022/03/10 01:37:20;;;;;;;3.20;3.00;;;3.80;99.90;;;;;;5036420;28;20367;-64
2022/03/10 01:39:47;;;;;;;3.13;2.92;;;3.80;99.90;;;;;;5035803;28;20291;-64
2022/03/10 01:42:14;;;;;;;3.63;3.42;;;3.80;99.90;;;;;;5035032;28;20251;-64
2022/03/10 01:44:41;;;;;;;2.78;2.67;;;3.70;99.90;;;;;;5035543;28;20260;-63
2022/03/10 01:47:10;;;;;;;3.17;2.97;;;3.80;99.90;;;;;;5033576;28;20354;-63
2022/03/10 01:49:39;;;;;;;3.42;3.22;;;3.80;99.90;;;;;;5031526;28;20220;-64
2022/03/10 01:52:06;;;;;;;3.30;3.10;;;3.80;99.90;;;;;;5031246;28;20510;-63
2022/03/10 01:54:33;;;;;;;3.42;3.22;;;3.70;99.90;;;;;;5030570;28;20324;-64
2022/03/10 01:57:01;;;;;;;3.60;3.40;;;3.70;99.90;;;;;;5030843;28;20226;-64
2022/03/10 01:59:28;;;;;;;3.43;3.23;;;3.70;99.90;;;;;;5030599;28;20205;-64
2022/03/10 02:01:55;;;;;;;3.45;3.25;;;3.70;99.90;;;;;;5021107;28;20395;-63
2022/03/10 02:04:22;;;;;;;3.25;3.05;;;3.70;99.90;;;;;;5022792;28;20316;-64
2022/03/10 02:06:51;;;;;;;3.45;3.25;;;3.70;99.90;;;;;;5017421;28;20281;-63
2022/03/10 02:12:02;;;;;;;3.80;3.60;;;3.70;99.90;;;;;;4998264;28;20270;-63
2022/03/10 02:17:22;;;;;;;3.45;3.22;;;3.70;99.90;;;;;;5011228;28;20638;-62
2022/03/10 02:19:50;;;;;;;3.40;3.20;;;3.70;99.90;;;;;;5014126;28;20213;-63
2022/03/10 02:22:20;;;;;;;3.85;3.55;;;3.80;99.90;;;;;;5015358;28;20209;-63
2022/03/10 02:24:48;;;;;;;3.42;3.22;;;3.80;99.90;;;;;;5015317;28;20225;-62
2022/03/10 02:27:16;;;;;;;3.33;3.13;;;3.90;99.90;;;;;;5015438;28;20247;-63
2022/03/10 02:29:44;;;;;;;3.33;3.13;;;3.90;99.90;;;;;;5015100;28;20261;-64
2022/03/10 02:32:11;;;;;;;3.60;3.30;;;3.90;99.90;;;;;;5018438;28;20235;-63
2022/03/10 02:34:39;;;;;;;3.63;3.42;;;3.80;99.90;;;;;;5016195;28;20251;-62
2022/03/10 02:37:05;;;;;;;3.50;3.30;;;3.70;99.90;;;;;;5017082;28;20205;-62
2022/03/10 02:39:34;;;;;;;3.38;3.17;;;3.70;99.90;;;;;;5020188;28;20345;-63
2022/03/10 02:42:02;;;;;;;3.40;3.20;;;3.70;99.90;;;;;;5027839;28;20236;-63
2022/03/10 02:44:29;;;;;;;3.53;3.33;;;3.70;99.90;;;;;;5022085;28;20222;-61
2022/03/10 02:46:56;;;;;;;3.50;3.30;;;3.70;99.90;;;;;;5019297;28;20281;-64
2022/03/10 02:49:23;;;;;;;3.53;3.33;;;3.70;99.90;;;;;;5015868;28;20574;-63
2022/03/10 02:51:51;;;;;;;3.50;3.30;;;3.70;99.90;;;;;;5014956;28;20643;-63
2022/03/10 02:54:18;;;;;;;3.22;3.03;;;3.80;99.90;;;;;;5014619;28;20606;-63
2022/03/10 02:56:46;;;;;;;3.47;3.28;;;3.70;99.90;;;;;;5014952;28;20212;-63
2022/03/10 02:59:13;;;;;;;3.47;3.28;;;3.70;99.90;;;;;;5014892;28;20818;-62
2022/03/10 03:01:40;;;;;;;3.05;2.90;;;3.70;99.90;;;;;;5014195;28;20292;-63
2022/03/10 03:04:07;;;;;;;3.42;3.22;;;3.70;99.90;;;;;;5014454;28;20211;-63
2022/03/10 03:06:34;;;;;;;3.63;3.42;;;3.70;99.90;;;;;;5015064;28;20207;-63
2022/03/10 03:09:01;;;;;;;3.55;3.35;;;3.70;99.90;;;;;;5023364;28;20224;-63
2022/03/10 03:11:28;;;;;;;3.20;3.00;;;3.70;99.90;;;;;;5025182;28;20284;-63
2022/03/10 03:13:56;;;;;;;3.70;3.50;;;3.60;99.90;;;;;;5013936;28;20667;-63
2022/03/10 03:16:24;;;;;;;3.10;2.90;;;3.60;99.90;;;;;;5014396;28;20263;-63
2022/03/10 03:18:51;;;;;;;3.25;3.03;;;3.50;99.90;;;;;;5014080;28;20212;-61
2022/03/10 03:21:18;;;;;;;3.30;3.10;;;3.50;99.90;;;;;;5014246;28;20292;-63
2022/03/10 03:23:45;;;;;;;3.55;3.35;;;3.70;99.90;;;;;;5014041;28;20579;-62
2022/03/10 03:26:12;;;;;;;3.83;3.63;;;3.70;99.90;;;;;;5023554;28;20221;-61
2022/03/10 03:28:39;;;;;;;3.30;3.10;;;3.60;99.90;;;;;;5015048;28;20587;-63
2022/03/10 03:31:07;;;;;;;3.30;3.10;;;3.60;99.90;;;;;;5014320;28;20233;-65
2022/03/10 03:33:34;;;;;;;3.30;3.10;;;3.60;99.90;;;;;;5013687;28;20206;-62
2022/03/10 03:36:01;;;;;;;3.30;3.00;;;3.60;99.90;;;;;;5013710;28;20221;-62
2022/03/10 03:38:28;;;;;;;3.35;3.15;;;3.70;99.90;;;;;;5014448;28;20296;-64
2022/03/10 03:40:55;;;;;;;3.15;3.00;;;3.70;99.90;;;;;;5016045;28;20205;-63
2022/03/10 03:43:22;;;;;;;3.40;3.20;;;3.70;99.90;;;;;;5015705;28;20259;-63
2022/03/10 03:45:49;;;;;;;3.42;3.22;;;3.60;99.90;;;;;;5015436;28;20226;-62
2022/03/10 03:48:17;;;;;;;3.28;3.08;;;3.60;99.90;;;;;;5015316;28;20252;-62
2022/03/10 03:50:44;;;;;;;3.60;3.33;;;3.60;99.90;;;;;;5013510;28;20256;-63
2022/03/10 03:53:11;;;;;;;3.67;3.47;;;3.60;99.90;;;;;;5013789;28;20320;-62
2022/03/10 03:55:39;;;;;;;3.38;3.17;;;3.50;99.90;;;;;;5013469;28;20658;-63
2022/03/10 03:58:06;;;;;;;3.33;3.15;;;3.40;99.90;;;;;;5013279;28;20214;-63
2022/03/10 04:00:34;;;;;;;3.40;3.20;;;3.30;99.90;;;;;;5013626;28;20411;-64
2022/03/10 04:03:07;;;;;;;3.75;3.55;;;3.20;99.90;;;;;;5013193;28;20243;-63
2022/03/10 04:05:35;;;;;;;3.95;3.65;;;3.20;99.90;;;;;;5013140;28;20272;-63
2022/03/10 04:08:02;;;;;;;3.50;3.30;;;3.10;99.90;;;;;;5013146;28;20296;-62
2022/03/10 04:10:29;;;;;;;3.92;3.72;;;3.10;99.90;;;;;;5013154;28;20231;-62
2022/03/10 04:12:56;;;;;;;4.18;3.90;;;3.00;99.90;;;;;;5014482;28;20426;-62
2022/03/10 04:15:23;;;;;;;3.58;3.38;;;3.00;99.90;;;;;;5013414;28;20221;-63
2022/03/10 04:17:49;;;;;;;3.67;3.47;;;2.90;99.90;;;;;;5013019;28;20288;-63
2022/03/10 04:20:16;;;;;;;3.70;3.50;;;2.90;99.90;;;;;;5013167;28;20205;-61
2022/03/10 04:22:44;;;;;;;3.40;3.20;;;2.90;99.90;;;;;;5014885;28;20273;-63
2022/03/10 04:25:11;;;;;;;3.80;3.60;;;2.90;99.90;;;;;;5018654;28;20652;-62
2022/03/10 04:27:39;;;;;;;3.45;3.25;;;2.90;99.90;;;;;;5018745;28;20205;-62
2022/03/10 04:30:07;;;;;;;4.78;3.55;;;2.90;99.90;;;;;;5018392;28;20292;-62
2022/03/10 04:32:41;;;;;;;3.55;3.35;;;2.80;99.90;;;;;;5014582;28;20212;-61
2022/03/10 04:35:08;;;;;;;4.18;3.97;;;2.80;99.90;;;;;;5012672;28;20231;-64
2022/03/10 04:37:35;;;;;;;3.80;3.60;;;2.80;99.90;;;;;;5012854;28;20216;-63
2022/03/10 04:40:06;;;;;;;3.75;3.55;;;2.80;99.90;;;;;;5013188;28;20297;-63
2022/03/10 04:42:33;;;;;;;3.97;3.78;;;2.80;99.90;;;;;;5012303;28;20268;-63
2022/03/10 04:44:59;;;;;;;3.78;3.58;;;2.80;99.90;;;;;;5012916;28;20234;-61
2022/03/10 04:47:26;;;;;;;3.97;3.63;;;2.80;99.90;;;;;;5012298;28;20209;-63
2022/03/10 04:49:53;;;;;;;3.90;3.60;;;2.70;99.90;;;;;;5012707;28;20292;-63
2022/03/10 04:52:20;;;;;;;3.80;3.60;;;2.70;99.90;;;;;;5015186;28;20293;-62
2022/03/10 04:54:47;;;;;;;4.07;3.78;;;2.60;99.90;;;;;;5015599;28;20718;-63
2022/03/10 04:57:15;;;;;;;3.85;3.65;;;2.60;99.90;;;;;;5016860;28;20277;-63
2022/03/10 04:59:42;;;;;;;3.75;3.55;;;2.60;99.90;;;;;;5025790;28;20212;-62
2022/03/10 05:02:09;;;;;;;3.88;3.67;;;2.50;99.90;;;;;;5013309;28;20719;-63
2022/03/10 05:04:36;;;;;;;3.80;3.60;;;2.60;99.90;;;;;;5011751;28;20268;-61
2022/03/10 05:07:04;;;;;;;4.22;3.92;;;2.50;99.90;;;;;;5010597;28;20688;-62
2022/03/10 05:09:30;;;;;;;3.70;3.50;;;2.50;99.90;;;;;;5010356;28;20682;-63
2022/03/10 05:11:57;;;;;;;3.90;3.60;;;2.50;99.90;;;;;;5012058;28;20232;-61
2022/03/10 05:14:25;;;;;;;4.25;3.95;;;2.50;99.90;;;;;;5011616;28;20235;-63
2022/03/10 05:16:52;;;;;;;4.10;3.80;;;2.50;99.90;;;;;;5011945;28;20647;-61
2022/03/10 05:19:20;;;;;;;3.78;3.58;;;2.50;99.90;;;;;;5012523;28;20477;-63
2022/03/10 05:21:46;;;;;;;3.80;3.60;;;2.40;99.90;;;;;;5012068;28;20208;-63
2022/03/10 05:24:13;;;;;;;4.13;3.92;;;2.40;99.90;;;;;;5014209;28;20247;-63
2022/03/10 05:26:40;;;;;;;3.88;3.67;;;2.20;99.90;;;;;;5017864;28;20244;-63
2022/03/10 05:29:07;;;;;;;3.75;3.55;;;2.20;99.90;;;;;;5017851;28;20239;-64
2022/03/10 05:31:35;;;;;;;3.88;3.67;;;2.20;99.90;;;;;;5016582;28;20265;-63
2022/03/10 05:34:03;;;;;;;3.83;3.63;;;2.20;99.90;;;;;;5013908;28;20209;-63
2022/03/10 05:36:30;;;;;;;3.92;3.63;;;2.20;99.90;;;;;;5011746;28;20205;-63
2022/03/10 05:38:57;;;;;;;3.47;3.28;;;2.20;99.90;;;;;;5005993;28;20209;-62
2022/03/10 05:41:24;;;;;;;3.95;3.75;;;2.30;99.90;;;;;;5011791;28;20240;-63
2022/03/10 05:43:51;;;;;;;3.70;3.50;;;2.40;99.90;;;;;;5011447;28;20292;-61
2022/03/10 05:46:18;;;;;;;4.38;4.00;;;2.50;99.90;;;;;;5011893;28;20225;-63
2022/03/10 05:48:46;;;;;;;3.80;3.60;;;2.50;99.90;;;;;;5011624;28;20296;-65
2022/03/10 05:51:13;;;;;;;4.30;4.00;;;2.50;99.90;;;;;;5011568;28;20232;-63
2022/03/10 05:53:40;;;;;;;4.10;3.90;;;2.50;99.90;;;;;;5015485;28;20209;-63
2022/03/10 05:56:07;;;;;;;3.88;3.67;;;2.50;99.90;;;;;;5012209;28;20233;-62
2022/03/10 05:58:34;;;;;;;3.85;3.65;;;2.50;99.90;;;;;;5027266;28;20216;-63
2022/03/10 06:01:00;;;;;;;3.60;3.40;;;2.60;99.90;;;;;;5022004;28;20293;-62
2022/03/10 06:03:27;;;;;;;3.85;3.65;;;2.60;99.90;;;;;;5031576;28;20691;-62
2022/03/10 06:05:56;;;;;;;4.35;4.05;;;2.50;99.90;;;;;;5016048;28;20225;-64
2022/03/10 06:08:23;;;;;;;4.28;3.97;;;2.40;99.90;;;;;;5016017;28;20308;-61
2022/03/10 06:10:49;;;;;;;3.72;3.53;;;2.40;99.90;;;;;;5013198;28;20312;-62
2022/03/10 06:13:16;;;;;;;3.85;3.55;;;2.30;99.90;;;;;;5015412;28;20260;-63
2022/03/10 06:15:43;;;;;;;4.05;3.85;;;2.30;99.90;;;;;;5013498;28;20263;-62
2022/03/10 06:18:10;;;;;;;3.70;3.50;;;2.20;99.90;;;;;;5014981;28;20251;-63
2022/03/10 06:20:37;;;;;;;3.90;3.70;;;2.20;99.90;;;;;;5015206;28;20240;-64
2022/03/10 06:23:05;;;;;;;3.88;3.67;;;2.20;99.90;;;;;;5014643;28;20211;-64
2022/03/10 06:25:32;;;;;;;3.85;3.65;;;2.20;99.90;;;;;;5013135;28;20308;-63
2022/03/10 06:27:59;;;;;;;4.05;3.85;;;2.20;99.90;;;;;;5014884;28;20205;-63
2022/03/10 06:30:25;;;;;;;3.97;3.70;;;2.20;99.90;;;;;;5018129;28;20230;-62
2022/03/10 06:32:52;;;;;;;3.85;3.65;;;2.30;99.90;;;;;;5028857;28;20225;-63
2022/03/10 06:35:20;;;;;;;3.67;3.47;;;2.30;99.90;;;;;;5013242;28;20218;-65
2022/03/10 06:37:47;;;;;;;3.70;3.50;;;2.30;99.90;;;;;;5019423;28;20280;-64
2022/03/10 06:40:16;;;;;;;3.60;3.40;;;2.40;99.90;;;;;;5021399;28;20252;-62
2022/03/10 06:42:43;;;;;;;3.67;3.47;;;2.50;99.90;;;;;;5022210;28;20216;-62
2022/03/10 06:45:10;;;;;;;3.70;3.50;;;2.60;99.90;;;;;;5021595;28;20899;-64
2022/03/10 06:47:37;;;;;;;3.50;3.30;;;2.70;99.90;;;;;;5014876;28;20237;-63
2022/03/10 06:50:06;;;;;;;3.80;3.60;;;2.80;99.90;;;;;;5008956;28;20213;-65
2022/03/10 06:52:33;;;;;;;4.10;3.80;;;2.90;99.90;;;;;;5013115;28;20255;-62
2022/03/10 06:55:00;;;;;;;3.90;3.70;;;2.90;99.90;;;;;;5014085;28;20308;-64
2022/03/10 06:57:28;;;;;;;4.40;4.10;;;3.00;99.90;;;;;;5013855;28;20232;-63
2022/03/10 06:59:55;;;;;;;3.40;3.20;;;3.00;99.90;;;;;;5011519;28;20209;-63
2022/03/10 07:02:23;;;;;;;3.80;3.50;;;3.20;99.90;;;;;;5015902;28;20228;-63
2022/03/10 07:04:49;;;;;;;4.10;3.90;;;3.30;99.90;;;;;;5016885;28;20233;-62
2022/03/10 07:07:16;;;;;;;3.90;3.70;;;3.30;99.90;;;;;;5014000;28;20803;-62
2022/03/10 07:09:43;;;;;;;3.83;3.63;;;3.40;99.90;;;;;;5007841;28;20205;-64
2022/03/10 07:12:10;;;;;;;3.58;3.38;;;3.60;99.90;;;;;;5010782;28;20251;-63
2022/03/10 07:14:39;;;;;;;3.50;3.30;;;3.70;99.90;;;;;;5013950;28;20749;-62
2022/03/10 07:17:06;;;;;;;3.63;3.35;;;3.80;99.90;;;;;;5014010;28;20292;-65
2022/03/10 07:19:32;;;;;;;3.70;3.50;;;3.90;99.90;;;;;;5021277;28;20204;-64
2022/03/10 07:21:59;;;;;;;4.05;3.83;;;4.00;99.90;;;;;;5027827;28;20205;-63
2022/03/10 07:24:26;;;;;;;3.92;3.72;;;4.10;99.90;;;;;;5013514;28;20253;-62
2022/03/10 07:26:53;;;;;;;4.47;4.18;;;4.10;99.90;;;;;;4998003;28;20231;-63
2022/03/10 07:29:20;;;;;;;4.80;4.50;;;4.10;99.90;;;;;;5029338;28;20623;-62
2022/03/10 07:31:48;;;;;;;4.32;4.10;;;4.10;99.90;;;;;;5013879;28;20225;-64
2022/03/10 07:34:15;;;;;;;4.70;4.40;;;4.20;99.90;;;;;;5012480;28;20301;-62
2022/03/10 07:36:43;;;;;;;4.45;4.25;;;4.30;99.90;;;;;;5012865;28;20217;-62
2022/03/10 07:39:10;;;;;;;4.95;4.65;;;4.30;99.90;;;;;;5012829;28;20244;-63
2022/03/10 07:41:37;;;;;;;4.35;4.05;;;4.40;99.90;;;;;;5012754;28;20591;-62
2022/03/10 07:44:05;;;;;;;4.20;3.90;;;4.50;99.90;;;;;;5012893;28;20695;-63
2022/03/10 07:46:32;;;;;;;4.05;3.85;;;4.60;99.90;;;;;;5013276;28;20625;-63
2022/03/10 07:49:00;;;;;;;4.80;4.50;;;4.60;99.90;;;;;;5013423;28;20357;-64
2022/03/10 07:51:27;;;;;;;4.00;3.80;;;4.60;99.90;;;;;;5013098;28;20312;-63
2022/03/10 07:53:54;;;;;;;4.13;3.92;;;4.70;99.90;;;;;;5013080;28;20206;-64
2022/03/10 07:56:20;;;;;;;4.40;4.10;;;4.90;99.90;;;;;;5012062;28;20221;-62
2022/03/10 07:58:48;;;;;;;4.47;4.18;;;5.10;99.90;;;;;;5012810;28;20209;-63
2022/03/10 08:01:14;;;;;;;4.53;4.22;;;5.10;99.90;;;;;;5013017;28;20293;-62
2022/03/10 08:03:41;;;;;;;4.60;4.30;;;5.10;99.90;;;;;;5012446;28;20201;-65
2022/03/10 08:06:10;;;;;;;4.63;4.32;;;5.10;99.90;;;;;;5012619;28;20328;-62
2022/03/10 08:08:37;;;;;;;4.32;4.03;;;5.10;99.90;;;;;;5013072;28;20263;-62
2022/03/10 08:11:05;;;;;;;3.92;3.72;;;5.20;99.90;;;;;;5012590;28;20229;-64
2022/03/10 08:13:32;;;;;;;4.05;3.85;;;5.40;99.90;;;;;;5012887;28;20209;-64
2022/03/10 08:16:00;;;;;;;3.97;3.78;;;5.70;99.90;;;;;;5011645;28;20260;-62
2022/03/10 08:18:27;;;;;;;4.07;3.83;;;5.90;99.90;;;;;;5012573;28;20578;-63
2022/03/10 08:20:55;;;;;;;4.72;4.38;;;6.10;99.90;;;;;;5012486;28;20292;-63
2022/03/10 08:23:23;;;;;;;4.43;4.22;;;6.20;99.90;;;;;;5012814;28;20209;-64
2022/03/10 08:25:50;;;;;;;4.22;3.92;;;6.30;99.90;;;;;;5009827;28;20256;-65
2022/03/10 08:28:17;;;;;;;4.30;4.10;;;6.50;99.90;;;;;;5012370;28;20308;-62
2022/03/10 08:30:44;;;;;;;4.72;4.43;;;6.50;99.90;;;;;;5012379;28;20209;-64
2022/03/10 08:33:11;;;;;;;4.80;4.50;;;6.60;99.90;;;;;;5012454;28;20233;-64
2022/03/10 08:35:38;;;;;;;4.32;4.03;;;6.60;99.90;;;;;;5012692;28;20256;-64
2022/03/10 08:38:05;;;;;;;5.15;4.75;;;6.60;99.90;;;;;;5012361;28;20300;-63
2022/03/10 08:40:33;;;;;;;4.43;4.20;;;6.80;99.90;;;;;;5012593;28;20217;-64
2022/03/10 08:43:00;;;;;;;5.40;5.00;;;6.80;99.90;;;;;;5012787;28;20240;-63
2022/03/10 08:45:27;;;;;;;4.60;4.38;;;6.90;99.90;;;;;;5013017;28;20308;-63
2022/03/10 08:47:55;;;;;;;4.93;4.63;;;6.90;99.90;;;;;;5012979;28;20301;-62
2022/03/10 08:50:23;;;;;;;5.13;4.72;;;7.00;99.90;;;;;;5012931;28;20209;-64
2022/03/10 08:52:50;;;;;;;5.28;4.97;;;6.90;99.90;;;;;;5012659;28;20676;-63
2022/03/10 08:55:17;;;;;;;4.97;4.68;;;7.00;99.90;;;;;;5012541;28;20267;-63
2022/03/10 08:57:47;;;;;;;5.25;4.95;;;7.10;99.90;;;;;;5013154;28;20634;-63
2022/03/10 09:00:15;;;;;;;5.10;4.80;;;7.00;99.90;;;;;;5012320;28;20700;-63
2022/03/10 09:02:42;;;;;;;4.85;4.57;;;7.00;99.90;;;;;;5012089;28;20259;-64
2022/03/10 09:05:10;;;;;;;5.07;4.78;;;7.10;99.90;;;;;;5012649;28;20618;-63
2022/03/10 09:07:37;;;;;;;4.95;4.65;;;7.30;99.90;;;;;;5013041;28;20236;-64
2022/03/10 09:10:05;;;;;;;5.10;4.80;;;7.50;99.90;;;;;;5011934;28;20208;-64
2022/03/10 09:12:32;;;;;;;5.43;5.07;;;7.70;99.90;;;;;;5012375;28;20662;-63
2022/03/10 09:15:00;;;;;;;5.35;5.05;;;7.90;99.90;;;;;;5012011;28;20260;-65
2022/03/10 09:17:27;;;;;;;5.63;5.22;;;8.00;99.90;;;;;;5012352;28;20292;-64
2022/03/10 09:19:54;;;;;;;5.30;4.93;;;8.10;99.90;;;;;;5012255;28;20205;-64
2022/03/10 09:22:23;;;;;;;4.85;4.55;;;8.20;99.90;;;;;;5013507;28;20576;-63
2022/03/10 09:24:50;;;;;;;4.85;4.55;;;8.30;99.90;;;;;;5015739;28;20240;-62
2022/03/10 09:27:17;;;;;;;5.57;5.18;;;8.40;99.90;;;;;;5014765;28;20252;-62
2022/03/10 09:29:43;;;;;;;4.40;4.20;;;8.50;99.90;;;;;;5012561;28;20237;-65
2022/03/10 09:32:12;;;;;;;5.70;5.30;;;8.60;99.90;;;;;;5012139;28;20227;-62
2022/03/10 09:34:40;;;;;;;5.22;4.93;;;8.80;99.90;;;;;;5012046;28;20332;-63
2022/03/10 09:37:07;;;;;;;5.10;4.80;;;8.80;99.90;;;;;;5012543;28;20228;-64
2022/03/10 09:39:34;;;;;;;4.95;4.65;;;8.80;99.90;;;;;;5012850;28;20205;-64
2022/03/10 09:42:04;;;;;;;5.30;4.90;;;8.90;99.90;;;;;;5012303;28;20202;-63
2022/03/10 09:44:33;;;;;;;5.28;4.97;;;9.00;99.90;;;;;;5012425;28;20233;-62
2022/03/10 09:47:03;;;;;;;5.53;5.15;;;9.10;99.90;;;;;;5012570;28;20232;-64
2022/03/10 09:49:34;;;;;;;5.50;5.20;;;9.10;99.90;;;;;;5013226;28;20205;-65
2022/03/10 09:52:02;;;;;;;5.53;5.22;;;9.40;99.90;;;;;;5012071;28;20319;-62
2022/03/10 09:54:29;;;;;;;5.40;5.10;;;9.50;99.90;;;;;;5020423;28;20225;-64
2022/03/10 09:56:57;;;;;;;5.43;5.13;;;9.70;99.90;;;;;;5021455;28;20248;-64
2022/03/10 09:59:26;;;;;;;5.63;5.13;;;9.80;99.90;;;;;;5011860;28;20702;-63
2022/03/10 10:01:54;;;;;;;5.80;5.38;;;9.80;99.90;;;;;;5011549;28;20202;-63
2022/03/10 10:04:21;;;;;;;5.50;5.20;;;9.80;99.90;;;;;;5011486;28;20730;-66
2022/03/10 10:07:04;;;;;;;5.43;5.10;;;9.90;99.90;;;;;;5012380;28;20208;-63
2022/03/10 10:09:45;;;;;;;5.78;5.47;;;10.00;99.90;;;;;;5011996;28;20224;-63
2022/03/10 10:12:13;;;;;;;5.82;5.53;;;10.10;99.90;;;;;;5011570;28;20209;-63
2022/03/10 10:14:42;;;;;;;6.03;5.57;;;10.10;99.90;;;;;;5011778;28;20314;-64
2022/03/10 10:17:09;;;;;;;6.35;5.95;;;10.20;99.90;;;;;;5011816;28;20209;-64
2022/03/10 10:19:37;;;;;;;6.15;5.75;;;10.20;99.90;;;;;;5012116;28;20296;-63
2022/03/10 10:22:14;;;;;;;6.22;5.80;;;10.40;99.90;;;;;;5011249;28;20244;-64
2022/03/10 10:24:41;;;;;;;5.88;5.47;;;10.50;99.90;;;;;;5011388;28;20743;-63
2022/03/10 10:27:15;;;;;;;6.07;5.67;;;10.50;99.90;;;;;;5011599;28;20803;-63
2022/03/10 10:29:50;;;;;;;5.15;4.85;;;10.60;99.90;;;;;;5012403;28;20287;-62
2022/03/10 10:32:31;;;;;;;5.95;5.55;;;10.70;99.90;;;;;;5011996;28;20255;-64
2022/03/10 10:35:07;;;;;;;5.63;5.32;;;10.90;99.90;;;;;;5011684;28;20241;-64
2022/03/10 10:37:37;;;;;;;5.55;5.20;;;10.90;99.90;;;;;;5011802;28;20201;-64
2022/03/10 10:40:05;;;;;;;5.47;5.07;;;11.00;99.90;;;;;;5013742;28;20212;-63
2022/03/10 10:42:34;;;;;;;6.18;5.63;;;11.00;99.90;;;;;;5015407;28;20240;-65
2022/03/10 10:45:22;;;;;;;5.90;5.50;;;11.10;99.90;;;;;;5015281;28;20225;-64
2022/03/10 10:47:59;;;;;;;5.43;5.13;;;11.10;99.90;;;;;;5015333;28;20297;-65
2022/03/10 10:50:29;;;;;;;4.80;4.60;;;11.20;99.90;;;;;;5024030;28;20226;-64
2022/03/10 10:52:57;;;;;;;5.13;4.82;;;11.30;99.90;;;;;;5016980;28;20232;-64
2022/03/10 10:55:32;;;;;;;5.50;5.20;;;11.30;99.90;;;;;;5015236;28;20260;-64
2022/03/10 10:58:05;;;;;;;5.30;5.00;;;11.40;99.90;;;;;;5015510;28;20203;-64
2022/03/10 11:00:43;;;;;;;5.85;5.55;;;11.40;99.90;;;;;;5014457;28;20229;-63
2022/03/10 11:03:23;;;;;;;5.75;5.45;;;11.50;99.90;;;;;;5014871;28;20186;-64
2022/03/10 11:05:51;;;;;;;6.00;5.70;;;11.50;99.90;;;;;;5014742;28;20291;-63
2022/03/10 11:08:21;;;;;;;5.60;5.30;;;11.50;99.90;;;;;;5015088;28;20313;-64
2022/03/10 11:10:48;;;;;;;5.82;5.43;;;11.60;99.90;;;;;;5015649;28;20205;-64
2022/03/10 11:13:15;;;;;;;6.50;6.00;;;11.70;99.90;;;;;;5014958;28;20271;-62
2022/03/10 11:15:43;;;;;;;5.93;5.53;;;11.60;99.90;;;;;;5014803;28;20229;-64
2022/03/10 11:18:12;;;;;;;6.35;5.95;;;11.40;99.90;;;;;;5015380;28;20209;-62
2022/03/10 11:20:40;;;;;;;6.05;5.60;;;11.30;99.90;;;;;;5014503;28;20914;-64
2022/03/10 11:23:17;;;;;;;5.78;5.38;;;11.30;99.90;;;;;;5014320;28;20212;-62
2022/03/10 11:25:54;;;;;;;5.88;5.57;;;11.60;99.90;;;;;;5014789;28;20235;-64
2022/03/10 11:28:24;;;;;;;5.60;5.27;;;11.80;99.90;;;;;;5014925;28;20293;-64
2022/03/10 11:30:54;;;;;;;5.70;5.33;;;11.80;99.90;;;;;;5014334;28;20240;-64
2022/03/10 11:33:22;;;;;;;6.05;5.43;;;11.90;99.90;;;;;;5014880;28;20321;-64
2022/03/10 11:35:51;;;;;;;5.30;5.00;;;12.20;99.90;;;;;;5015208;28;20295;-64
2022/03/10 11:38:19;;;;;;;5.95;5.65;;;12.30;99.90;;;;;;5015352;28;20201;-63
2022/03/10 11:40:51;;;;;;;5.87;5.57;;;12.40;99.90;;;;;;5014240;28;20539;-63
2022/03/10 11:43:21;;;;;;;5.47;5.18;;;12.40;99.90;;;;;;5013961;28;20707;-63
2022/03/10 11:45:48;;;;;;;6.55;6.15;;;12.40;99.90;;;;;;5014100;28;20229;-64
2022/03/10 11:48:35;;;;;;;6.05;5.65;;;12.50;99.90;;;;;;5014388;28;20616;-63
2022/03/10 11:51:19;;;;;;;5.60;5.20;;;12.50;99.90;;;;;;5013430;28;20602;-63
2022/03/10 11:53:57;;;;;;;5.50;5.20;;;12.60;99.90;;;;;;5012136;28;20576;-64
2022/03/10 11:56:35;;;;;;;5.43;5.13;;;12.60;99.90;;;;;;5014237;28;20552;-63
2022/03/10 11:59:18;;;;;;;5.60;5.18;;;12.60;99.90;;;;;;5014499;28;20208;-62
2022/03/10 12:01:46;;;;;;;5.63;5.23;;;12.70;99.90;;;;;;5013882;28;20292;-65
2022/03/10 12:04:18;;;;;;;5.78;5.38;;;12.70;99.90;;;;;;5019987;28;20283;-64
2022/03/10 12:06:50;;;;;;;5.80;5.40;;;12.80;99.90;;;;;;5052924;22;20230;-66
2022/03/10 12:09:28;;;;;;;5.60;5.30;;;12.80;99.90;;;;;;5053000;28;20703;-66
2022/03/10 12:12:13;;;;;;;5.90;5.53;;;13.00;99.90;;;;;;5054356;28;20239;-67
2022/03/10 12:14:40;;;;;;;5.82;5.43;;;13.30;99.90;;;;;;5054355;28;20593;-66
2022/03/10 12:17:49;;;;;;;5.83;5.53;;;13.40;99.90;;;;;;5038973;28;20226;-65
2022/03/10 12:20:18;;;;;;;5.70;5.30;;;13.40;99.90;;;;;;5048403;28;20203;-65
2022/03/10 12:23:09;;;;;;;5.83;5.43;;;13.40;99.90;;;;;;5013441;28;20631;-66
2022/03/10 12:25:39;;;;;;;5.57;5.28;;;13.40;99.90;;;;;;5013693;28;20605;-66
2022/03/10 12:28:08;;;;;;;5.60;5.30;;;13.50;99.90;;;;;;5013560;28;20582;-66
2022/03/10 12:30:40;;;;;;;5.40;5.10;;;13.60;99.90;;;;;;5013737;28;20233;-65
2022/03/10 12:33:08;;;;;;;5.03;4.72;;;13.80;99.90;;;;;;5016576;28;20221;-65
2022/03/10 12:35:37;;;;;;;5.28;4.97;;;13.90;99.90;;;;;;5015871;28;20292;-65
2022/03/10 12:38:05;;;;;;;5.38;5.07;;;14.00;99.90;;;;;;5017827;28;20217;-66
2022/03/10 12:40:35;;;;;;;5.18;4.88;;;14.10;99.90;;;;;;5013722;28;20300;-66
2022/03/10 12:43:04;;;;;;;5.15;4.85;;;14.00;99.90;;;;;;5013499;28;20233;-66
2022/03/10 12:45:33;;;;;;;5.10;4.80;;;14.10;99.90;;;;;;5013682;28;20248;-66
2022/03/10 12:48:05;;;;;;;5.40;5.10;;;14.30;99.90;;;;;;5014629;28;20296;-66
2022/03/10 12:50:34;;;;;;;5.03;4.75;;;14.40;99.90;;;;;;5015150;28;20205;-66
2022/03/10 12:53:10;;;;;;;5.50;5.20;;;14.30;99.90;;;;;;5015030;28;20225;-65
2022/03/10 12:55:37;;;;;;;5.37;5.07;;;14.30;99.90;;;;;;5018449;28;20648;-66
2022/03/10 12:58:04;;;;;;;5.47;5.13;;;14.40;99.90;;;;;;5044062;28;20212;-65
2022/03/10 13:00:36;;;;;;;5.00;4.70;;;14.50;99.90;;;;;;5053014;28;20294;-65
2022/03/10 13:03:03;;;;;;;5.20;4.90;;;14.60;99.90;;;;;;5053484;28;20554;-67
2022/03/10 13:05:31;;;;;;;5.35;5.05;;;14.60;99.90;;;;;;5053265;28;20236;-65
2022/03/10 13:08:06;;;;;;;4.90;4.60;;;14.60;99.90;;;;;;5053587;28;20303;-66
2022/03/10 13:10:33;;;;;;;5.25;4.95;;;14.60;99.90;;;;;;5052609;28;20207;-65